sensor_id;sensor_type;location;lat;lon;timestamp;pressure;altitude;pressure_sealevel;temperature;humidity
57644;BME280;43474;46.510;6.686;2023-09-19T00:00:31;96575.59;;;23.51;88.83
57644;BME280;43474;46.510;6.686;2023-09-19T00:03:17;96573.19;;;23.50;88.68
57644;BME280;43474;46.510;6.686;2023-09-19T00:05:42;96572.72;;;23.47;88.63
57644;BME280;43474;46.510;6.686;2023-09-19T00:08:11;96567.00;;;23.49;88.83
57644;BME280;43474;46.510;6.686;2023-09-19T00:10:38;96561.59;;;23.49;88.63
57644;BME280;43474;46.510;6.686;2023-09-19T00:13:06;96561.59;;;23.49;88.55
57644;BME280;43474;46.510;6.686;2023-09-19T00:15:41;96555.84;;;23.51;88.70
57644;BME280;43474;46.510;6.686;2023-09-19T00:18:07;96558.09;;;23.48;88.75
57644;BME280;43474;46.510;6.686;2023-09-19T00:20:37;96553.47;;;23.49;88.47
57644;BME280;43474;46.510;6.686;2023-09-19T00:23:04;96553.47;;;23.49;88.54
57644;BME280;43474;46.510;6.686;2023-09-19T00:25:35;96556.78;;;23.46;88.60
57644;BME280;43474;46.510;6.686;2023-09-19T00:28:01;96547.88;;;23.45;88.41
57644;BME280;43474;46.510;6.686;2023-09-19T00:30:27;96549.00;;;23.44;88.27
57644;BME280;43474;46.510;6.686;2023-09-19T00:32:52;96553.63;;;23.44;88.04
57644;BME280;43474;46.510;6.686;2023-09-19T00:35:18;96546.31;;;23.44;88.10
57644;BME280;43474;46.510;6.686;2023-09-19T00:37:49;96546.31;;;23.44;88.15
57644;BME280;43474;46.510;6.686;2023-09-19T00:40:14;96545.69;;;23.47;88.14
57644;BME280;43474;46.510;6.686;2023-09-19T00:42:48;96523.53;;;23.45;87.95
57644;BME280;43474;46.510;6.686;2023-09-19T00:45:16;96524.84;;;23.48;88.14
57644;BME280;43474;46.510;6.686;2023-09-19T00:47:48;96528.63;;;23.47;88.29
57644;BME280;43474;46.510;6.686;2023-09-19T00:50:16;96541.84;;;23.48;88.24
57644;BME280;43474;46.510;6.686;2023-09-19T00:52:43;96536.44;;;23.48;88.29
57644;BME280;43474;46.510;6.686;2023-09-19T00:55:10;96535.66;;;23.48;88.01
57644;BME280;43474;46.510;6.686;2023-09-19T00:57:38;96528.94;;;23.45;88.24
57644;BME280;43474;46.510;6.686;2023-09-19T01:00:07;96532.16;;;23.47;88.21
57644;BME280;43474;46.510;6.686;2023-09-19T01:02:34;96534.03;;;23.47;88.50
57644;BME280;43474;46.510;6.686;2023-09-19T01:05:00;96529.75;;;23.46;88.19
57644;BME280;43474;46.510;6.686;2023-09-19T01:07:28;96532.44;;;23.46;88.08
57644;BME280;43474;46.510;6.686;2023-09-19T01:10:00;96529.75;;;23.46;88.18
57644;BME280;43474;46.510;6.686;2023-09-19T01:12:34;96524.34;;;23.46;88.00
57644;BME280;43474;46.510;6.686;2023-09-19T01:15:08;96531.66;;;23.45;87.98
57644;BME280;43474;46.510;6.686;2023-09-19T01:17:46;96530.88;;;23.45;88.02
57644;BME280;43474;46.510;6.686;2023-09-19T01:20:21;96518.13;;;23.45;88.05
57644;BME280;43474;46.510;6.686;2023-09-19T01:22:58;96517.34;;;23.45;88.10
57644;BME280;43474;46.510;6.686;2023-09-19T01:28:29;96536.28;;;23.45;88.27
57644;BME280;43474;46.510;6.686;2023-09-19T01:30:57;96536.28;;;23.45;88.05
57644;BME280;43474;46.510;6.686;2023-09-19T01:33:25;96528.16;;;23.45;87.94
57644;BME280;43474;46.510;6.686;2023-09-19T01:35:52;96538.97;;;23.45;87.81
57644;BME280;43474;46.510;6.686;2023-09-19T01:38:19;96542.81;;;23.44;87.89
57644;BME280;43474;46.510;6.686;2023-09-19T01:47:51;96517.66;;;23.43;87.92
57644;BME280;43474;46.510;6.686;2023-09-19T01:50:38;96519.59;;;23.43;87.73
57644;BME280;43474;46.510;6.686;2023-09-19T01:53:15;96524.66;;;23.44;87.74
57644;BME280;43474;46.510;6.686;2023-09-19T01:55:46;96528.47;;;23.43;87.66
57644;BME280;43474;46.510;6.686;2023-09-19T01:58:34;96523.88;;;23.44;87.68
57644;BME280;43474;46.510;6.686;2023-09-19T02:01:03;96520.38;;;23.43;87.83
57644;BME280;43474;46.510;6.686;2023-09-19T02:03:31;96511.94;;;23.45;87.98
57644;BME280;43474;46.510;6.686;2023-09-19T02:05:58;96511.47;;;23.43;87.88
57644;BME280;43474;46.510;6.686;2023-09-19T02:08:25;96515.75;;;23.44;87.81
57644;BME280;43474;46.510;6.686;2023-09-19T02:10:52;96512.25;;;23.43;87.84
57644;BME280;43474;46.510;6.686;2023-09-19T02:13:19;96504.16;;;23.43;87.72
57644;BME280;43474;46.510;6.686;2023-09-19T02:15:46;96500.66;;;23.43;87.82
57644;BME280;43474;46.510;6.686;2023-09-19T02:18:12;96508.75;;;23.43;87.71
57644;BME280;43474;46.510;6.686;2023-09-19T02:20:39;96504.16;;;23.43;87.81
57644;BME280;43474;46.510;6.686;2023-09-19T02:23:05;96506.06;;;23.43;87.79
57644;BME280;43474;46.510;6.686;2023-09-19T02:25:30;96513.38;;;23.42;87.55
57644;BME280;43474;46.510;6.686;2023-09-19T02:27:57;96512.56;;;23.42;87.55
57644;BME280;43474;46.510;6.686;2023-09-19T02:30:27;96522.28;;;23.43;87.41
57644;BME280;43474;46.510;6.686;2023-09-19T02:32:52;96523.38;;;23.42;87.53
57644;BME280;43474;46.510;6.686;2023-09-19T02:35:18;96512.56;;;23.42;87.46
57644;BME280;43474;46.510;6.686;2023-09-19T02:37:47;96517.97;;;23.42;87.72
57644;BME280;43474;46.510;6.686;2023-09-19T02:40:12;96517.97;;;23.42;87.61
57644;BME280;43474;46.510;6.686;2023-09-19T02:42:48;96514.47;;;23.41;87.40
57644;BME280;43474;46.510;6.686;2023-09-19T02:45:17;96525.28;;;23.41;87.46
57644;BME280;43474;46.510;6.686;2023-09-19T02:47:47;96509.84;;;23.42;87.51
57644;BME280;43474;46.510;6.686;2023-09-19T02:50:13;96520.66;;;23.42;87.47
57644;BME280;43474;46.510;6.686;2023-09-19T02:52:42;96512.56;;;23.42;87.56
57644;BME280;43474;46.510;6.686;2023-09-19T02:55:14;96519.88;;;23.41;87.59
57644;BME280;43474;46.510;6.686;2023-09-19T02:57:47;96518.78;;;23.42;87.47
57644;BME280;43474;46.510;6.686;2023-09-19T03:00:13;96523.38;;;23.42;87.43
57644;BME280;43474;46.510;6.686;2023-09-19T03:02:39;96520.66;;;23.42;87.62
57644;BME280;43474;46.510;6.686;2023-09-19T03:05:07;96521.00;;;23.40;87.32
57644;BME280;43474;46.510;6.686;2023-09-19T03:07:33;96520.66;;;23.42;87.48
57644;BME280;43474;46.510;6.686;2023-09-19T03:09:59;96518.28;;;23.40;87.32
57644;BME280;43474;46.510;6.686;2023-09-19T03:12:26;96529.91;;;23.41;87.24
57644;BME280;43474;46.510;6.686;2023-09-19T03:14:52;96517.50;;;23.40;87.24
57644;BME280;43474;46.510;6.686;2023-09-19T03:17:17;96531.81;;;23.40;87.17
57644;BME280;43474;46.510;6.686;2023-09-19T03:19:45;96531.03;;;23.40;87.27
57644;BME280;43474;46.510;6.686;2023-09-19T03:22:11;96529.91;;;23.41;87.28
57644;BME280;43474;46.510;6.686;2023-09-19T03:24:37;96528.31;;;23.40;87.20
57644;BME280;43474;46.510;6.686;2023-09-19T03:27:03;96534.84;;;23.39;87.27
57644;BME280;43474;46.510;6.686;2023-09-19T03:29:29;96523.69;;;23.40;87.21
57644;BME280;43474;46.510;6.686;2023-09-19T03:31:54;96524.81;;;23.39;87.16
57644;BME280;43474;46.510;6.686;2023-09-19T03:34:20;96532.94;;;23.39;87.27
57644;BME280;43474;46.510;6.686;2023-09-19T03:36:46;96531.34;;;23.38;87.03
57644;BME280;43474;46.510;6.686;2023-09-19T03:39:12;96531.81;;;23.40;87.34
57644;BME280;43474;46.510;6.686;2023-09-19T03:41:38;96535.31;;;23.41;87.32
57644;BME280;43474;46.510;6.686;2023-09-19T03:44:04;96531.81;;;23.40;87.23
57644;BME280;43474;46.510;6.686;2023-09-19T03:46:29;96532.13;;;23.39;87.10
57644;BME280;43474;46.510;6.686;2023-09-19T03:48:55;96532.13;;;23.39;87.12
57644;BME280;43474;46.510;6.686;2023-09-19T03:51:21;96525.13;;;23.38;86.98
57644;BME280;43474;46.510;6.686;2023-09-19T03:53:46;96520.53;;;23.38;87.10
57644;BME280;43474;46.510;6.686;2023-09-19T03:56:14;96515.13;;;23.38;86.93
57644;BME280;43474;46.510;6.686;2023-09-19T03:58:40;96511.28;;;23.39;86.95
57644;BME280;43474;46.510;6.686;2023-09-19T04:01:06;96523.53;;;23.37;86.10
57644;BME280;43474;46.510;6.686;2023-09-19T04:03:34;96504.91;;;23.35;85.64
57644;BME280;43474;46.510;6.686;2023-09-19T04:06:26;96511.44;;;23.34;85.84
57644;BME280;43474;46.510;6.686;2023-09-19T04:08:52;96507.63;;;23.35;85.67
57644;BME280;43474;46.510;6.686;2023-09-19T04:11:18;96511.44;;;23.34;85.52
57644;BME280;43474;46.510;6.686;2023-09-19T04:13:44;96520.34;;;23.35;85.09
57644;BME280;43474;46.510;6.686;2023-09-19T04:16:09;96510.31;;;23.35;84.94
57644;BME280;43474;46.510;6.686;2023-09-19T04:18:35;96503.34;;;23.34;84.94
57644;BME280;43474;46.510;6.686;2023-09-19T04:21:04;96503.34;;;23.34;84.56
57644;BME280;43474;46.510;6.686;2023-09-19T04:23:31;96513.34;;;23.34;84.68
57644;BME280;43474;46.510;6.686;2023-09-19T04:25:58;96517.97;;;23.33;84.68
57644;BME280;43474;46.510;6.686;2023-09-19T04:28:23;96511.44;;;23.34;84.68
57644;BME280;43474;46.510;6.686;2023-09-19T04:30:50;96512.56;;;23.33;84.61
57644;BME280;43474;46.510;6.686;2023-09-19T04:33:15;96516.38;;;23.32;84.84
57644;BME280;43474;46.510;6.686;2023-09-19T04:35:41;96518.75;;;23.34;84.59
57644;BME280;43474;46.510;6.686;2023-09-19T04:38:08;96509.06;;;23.33;84.49
57644;BME280;43474;46.510;6.686;2023-09-19T04:40:34;96515.56;;;23.32;84.75
57644;BME280;43474;46.510;6.686;2023-09-19T04:42:59;96522.88;;;23.31;84.71
57644;BME280;43474;46.510;6.686;2023-09-19T04:45:26;96522.88;;;23.31;84.80
57644;BME280;43474;46.510;6.686;2023-09-19T04:47:52;96532.91;;;23.31;84.95
57644;BME280;43474;46.510;6.686;2023-09-19T04:50:19;96528.28;;;23.31;84.94
57644;BME280;43474;46.510;6.686;2023-09-19T04:52:49;96524.00;;;23.30;85.20
57644;BME280;43474;46.510;6.686;2023-09-19T04:55:17;96520.50;;;23.30;85.21
57644;BME280;43474;46.510;6.686;2023-09-19T04:57:47;96528.78;;;23.33;85.48
57644;BME280;43474;46.510;6.686;2023-09-19T05:00:18;96530.56;;;23.38;86.18
57644;BME280;43474;46.510;6.686;2023-09-19T05:02:50;96532.47;;;23.37;85.90
57644;BME280;43474;46.510;6.686;2023-09-19T05:05:19;96538.50;;;23.34;85.54
57644;BME280;43474;46.510;6.686;2023-09-19T05:07:46;96536.41;;;23.31;85.56
57644;BME280;43474;46.510;6.686;2023-09-19T05:10:12;96536.72;;;23.30;85.48
57644;BME280;43474;46.510;6.686;2023-09-19T05:12:39;96540.56;;;23.29;85.55
57644;BME280;43474;46.510;6.686;2023-09-19T05:15:05;96545.63;;;23.30;85.43
57644;BME280;43474;46.510;6.686;2023-09-19T05:17:35;96540.56;;;23.29;85.49
57644;BME280;43474;46.510;6.686;2023-09-19T05:20:01;96540.84;;;23.27;85.53
57644;BME280;43474;46.510;6.686;2023-09-19T05:23:03;96545.47;;;23.27;85.48
57644;BME280;43474;46.510;6.686;2023-09-19T05:25:32;96547.06;;;23.28;85.32
57644;BME280;43474;46.510;6.686;2023-09-19T05:27:58;96551.19;;;23.25;85.82
57644;BME280;43474;46.510;6.686;2023-09-19T05:30:26;96548.97;;;23.18;85.63
57644;BME280;43474;46.510;6.686;2023-09-19T05:32:54;96560.72;;;23.14;85.56
57644;BME280;43474;46.510;6.686;2023-09-19T05:35:20;96551.16;;;23.08;85.77
57644;BME280;43474;46.510;6.686;2023-09-19T05:37:47;96558.94;;;23.09;85.99
57644;BME280;43474;46.510;6.686;2023-09-19T05:40:17;96561.97;;;23.08;86.00
57644;BME280;43474;46.510;6.686;2023-09-19T05:42:43;96563.38;;;23.05;85.74
57644;BME280;43474;46.510;6.686;2023-09-19T05:45:10;96568.59;;;23.02;85.61
57644;BME280;43474;46.510;6.686;2023-09-19T05:47:40;96569.41;;;23.02;85.60
57644;BME280;43474;46.510;6.686;2023-09-19T05:50:11;96577.50;;;23.02;85.34
57644;BME280;43474;46.510;6.686;2023-09-19T05:52:37;96577.84;;;23.01;85.52
57644;BME280;43474;46.510;6.686;2023-09-19T05:55:06;96576.25;;;23.00;85.45
57644;BME280;43474;46.510;6.686;2023-09-19T05:57:34;96582.72;;;22.90;86.27
57644;BME280;43474;46.510;6.686;2023-09-19T05:59:59;96589.13;;;22.71;86.89
57644;BME280;43474;46.510;6.686;2023-09-19T06:02:25;96588.31;;;22.93;87.39
57644;BME280;43474;46.510;6.686;2023-09-19T06:04:56;96604.91;;;23.09;88.45
57644;BME280;43474;46.510;6.686;2023-09-19T06:07:22;96595.69;;;23.10;88.95
57644;BME280;43474;46.510;6.686;2023-09-19T06:09:52;96602.81;;;23.06;89.36
57644;BME280;43474;46.510;6.686;2023-09-19T06:12:19;96617.13;;;23.07;89.53
57644;BME280;43474;46.510;6.686;2023-09-19T06:14:44;96617.13;;;23.07;89.40
57644;BME280;43474;46.510;6.686;2023-09-19T06:17:10;96617.75;;;23.04;89.12
57644;BME280;43474;46.510;6.686;2023-09-19T06:19:36;96626.50;;;23.01;88.91
57644;BME280;43474;46.510;6.686;2023-09-19T06:22:01;96622.66;;;22.93;88.46
57644;BME280;43474;46.510;6.686;2023-09-19T06:24:27;96625.75;;;22.86;87.98
57644;BME280;43474;46.510;6.686;2023-09-19T06:26:53;96623.03;;;22.86;87.92
57644;BME280;43474;46.510;6.686;2023-09-19T06:29:20;96635.44;;;22.87;87.49
57644;BME280;43474;46.510;6.686;2023-09-19T06:31:48;96631.38;;;22.90;87.45
57644;BME280;43474;46.510;6.686;2023-09-19T06:34:14;96632.66;;;22.92;87.65
57644;BME280;43474;46.510;6.686;2023-09-19T06:36:41;96637.75;;;22.94;87.61
57644;BME280;43474;46.510;6.686;2023-09-19T06:39:07;96627.56;;;22.91;87.32
57644;BME280;43474;46.510;6.686;2023-09-19T06:41:37;96629.00;;;22.88;86.84
57644;BME280;43474;46.510;6.686;2023-09-19T06:44:04;96630.25;;;22.91;86.86
57644;BME280;43474;46.510;6.686;2023-09-19T06:46:30;96632.47;;;22.89;87.00
57644;BME280;43474;46.510;6.686;2023-09-19T06:48:58;96628.78;;;22.85;87.05
57644;BME280;43474;46.510;6.686;2023-09-19T06:51:23;96630.34;;;22.86;87.34
57644;BME280;43474;46.510;6.686;2023-09-19T06:53:49;96627.97;;;22.84;87.53
57644;BME280;43474;46.510;6.686;2023-09-19T06:56:14;96629.69;;;22.80;87.76
57644;BME280;43474;46.510;6.686;2023-09-19T06:58:40;96626.69;;;22.82;87.78
57644;BME280;43474;46.510;6.686;2023-09-19T07:01:08;96630.81;;;22.79;88.24
57644;BME280;43474;46.510;6.686;2023-09-19T07:03:34;96635.72;;;22.77;88.33
57644;BME280;43474;46.510;6.686;2023-09-19T07:05:59;96630.31;;;22.77;87.93
57644;BME280;43474;46.510;6.686;2023-09-19T07:08:25;96636.34;;;22.74;87.84
57644;BME280;43474;46.510;6.686;2023-09-19T07:10:50;96634.75;;;22.73;87.02
57644;BME280;43474;46.510;6.686;2023-09-19T07:13:18;96634.63;;;22.78;87.56
57644;BME280;43474;46.510;6.686;2023-09-19T07:15:44;96639.22;;;22.78;87.83
57644;BME280;43474;46.510;6.686;2023-09-19T07:18:13;96638.91;;;22.79;88.05
57644;BME280;43474;46.510;6.686;2023-09-19T07:20:40;96641.81;;;22.83;87.67
57644;BME280;43474;46.510;6.686;2023-09-19T07:23:11;96646.00;;;22.89;87.47
57644;BME280;43474;46.510;6.686;2023-09-19T07:25:40;96641.06;;;22.91;87.44
57644;BME280;43474;46.510;6.686;2023-09-19T07:28:06;96646.19;;;22.92;87.41
57644;BME280;43474;46.510;6.686;2023-09-19T07:30:31;96642.84;;;22.95;88.04
57644;BME280;43474;46.510;6.686;2023-09-19T07:32:57;96649.84;;;22.96;87.81
57644;BME280;43474;46.510;6.686;2023-09-19T07:35:23;96657.78;;;22.93;87.69
57644;BME280;43474;46.510;6.686;2023-09-19T07:37:49;96653.56;;;22.87;87.73
57644;BME280;43474;46.510;6.686;2023-09-19T07:40:19;96663.09;;;22.84;88.16
57644;BME280;43474;46.510;6.686;2023-09-19T07:42:45;96672.31;;;22.83;88.17
57644;BME280;43474;46.510;6.686;2023-09-19T07:45:12;96669.63;;;22.83;88.37
57644;BME280;43474;46.510;6.686;2023-09-19T07:47:50;96654.22;;;22.84;88.27
57644;BME280;43474;46.510;6.686;2023-09-19T07:50:17;96655.00;;;22.84;88.47
57644;BME280;43474;46.510;6.686;2023-09-19T07:52:47;96661.53;;;22.83;88.54
57644;BME280;43474;46.510;6.686;2023-09-19T07:55:13;96667.72;;;22.84;88.34
57644;BME280;43474;46.510;6.686;2023-09-19T07:57:44;96659.28;;;22.85;88.60
57644;BME280;43474;46.510;6.686;2023-09-19T08:00:10;96655.78;;;22.85;88.56
57644;BME280;43474;46.510;6.686;2023-09-19T08:02:37;96663.91;;;22.85;88.68
57644;BME280;43474;46.510;6.686;2023-09-19T08:05:03;96663.00;;;22.89;88.45
57644;BME280;43474;46.510;6.686;2023-09-19T08:07:35;96666.38;;;22.95;88.15
57644;BME280;43474;46.510;6.686;2023-09-19T08:10:02;96671.97;;;22.99;88.06
57644;BME280;43474;46.510;6.686;2023-09-19T08:12:28;96668.16;;;23.00;87.85
57644;BME280;43474;46.510;6.686;2023-09-19T08:14:55;96672.94;;;23.03;87.80
57644;BME280;43474;46.510;6.686;2023-09-19T08:17:21;96670.25;;;23.03;87.77
57644;BME280;43474;46.510;6.686;2023-09-19T08:19:48;96669.94;;;23.04;87.57
57644;BME280;43474;46.510;6.686;2023-09-19T08:22:19;96673.91;;;23.07;87.55
57644;BME280;43474;46.510;6.686;2023-09-19T08:24:45;96668.50;;;23.07;87.40
57644;BME280;43474;46.510;6.686;2023-09-19T08:27:11;96679.81;;;23.09;87.62
57644;BME280;43474;46.510;6.686;2023-09-19T08:29:38;96665.50;;;23.08;87.58
57644;BME280;43474;46.510;6.686;2023-09-19T08:32:04;96669.78;;;23.09;87.60
57644;BME280;43474;46.510;6.686;2023-09-19T08:34:29;96673.28;;;23.10;87.52
57644;BME280;43474;46.510;6.686;2023-09-19T08:36:59;96669.47;;;23.11;87.61
57644;BME280;43474;46.510;6.686;2023-09-19T08:39:25;96671.06;;;23.12;87.56
57644;BME280;43474;46.510;6.686;2023-09-19T08:42:01;96669.19;;;23.12;87.37
57644;BME280;43474;46.510;6.686;2023-09-19T08:44:27;96673.16;;;23.15;87.60
57644;BME280;43474;46.510;6.686;2023-09-19T08:47:08;96671.25;;;23.15;87.52
57644;BME280;43474;46.510;6.686;2023-09-19T08:52:14;96668.53;;;23.15;87.51
57644;BME280;43474;46.510;6.686;2023-09-19T08:54:41;96672.53;;;23.18;87.52
57644;BME280;43474;46.510;6.686;2023-09-19T08:57:09;96680.66;;;23.18;87.54
57644;BME280;43474;46.510;6.686;2023-09-19T08:59:41;96681.44;;;23.18;87.84
57644;BME280;43474;46.510;6.686;2023-09-19T09:02:11;96676.50;;;23.20;87.60
57644;BME280;43474;46.510;6.686;2023-09-19T09:04:40;96676.50;;;23.20;87.91
57644;BME280;43474;46.510;6.686;2023-09-19T09:07:10;96671.91;;;23.21;87.73
57644;BME280;43474;46.510;6.686;2023-09-19T09:09:37;96673.50;;;23.22;87.78
57644;BME280;43474;46.510;6.686;2023-09-19T09:12:04;96661.59;;;23.23;88.07
57644;BME280;43474;46.510;6.686;2023-09-19T09:14:30;96668.59;;;23.24;88.39
57644;BME280;43474;46.510;6.686;2023-09-19T09:16:56;96666.69;;;23.25;88.31
57644;BME280;43474;46.510;6.686;2023-09-19T09:19:24;96669.38;;;23.25;88.38
57644;BME280;43474;46.510;6.686;2023-09-19T09:21:51;96661.28;;;23.25;88.71
57644;BME280;43474;46.510;6.686;2023-09-19T09:24:29;96663.66;;;23.26;88.85
57644;BME280;43474;46.510;6.686;2023-09-19T09:26:56;96665.56;;;23.26;89.07
57644;BME280;43474;46.510;6.686;2023-09-19T09:29:41;96670.66;;;23.27;89.23
57644;BME280;43474;46.510;6.686;2023-09-19T09:32:30;96665.25;;;23.27;89.62
57644;BME280;43474;46.510;6.686;2023-09-19T09:35:00;96673.06;;;23.29;89.61
57644;BME280;43474;46.510;6.686;2023-09-19T09:37:27;96673.84;;;23.29;89.94
57644;BME280;43474;46.510;6.686;2023-09-19T09:39:57;96674.66;;;23.30;90.37
57644;BME280;43474;46.510;6.686;2023-09-19T09:42:34;96678.16;;;23.30;90.61
57644;BME280;43474;46.510;6.686;2023-09-19T09:47:42;96660.00;;;23.31;91.13
57644;BME280;43474;46.510;6.686;2023-09-19T09:50:10;96672.41;;;23.32;91.05
57644;BME280;43474;46.510;6.686;2023-09-19T09:52:46;96669.25;;;23.30;91.08
57644;BME280;43474;46.510;6.686;2023-09-19T09:55:12;96663.50;;;23.31;91.60
57644;BME280;43474;46.510;6.686;2023-09-19T09:57:38;96658.09;;;23.31;91.87
57644;BME280;43474;46.510;6.686;2023-09-19T10:00:09;96670.53;;;23.32;91.55
57644;BME280;43474;46.510;6.686;2023-09-19T10:02:38;96656.19;;;23.32;91.38
57644;BME280;43474;46.510;6.686;2023-09-19T10:07:48;96655.91;;;23.33;90.73
57644;BME280;43474;46.510;6.686;2023-09-19T10:10:35;96648.09;;;23.32;90.77
57644;BME280;43474;46.510;6.686;2023-09-19T10:13:08;96656.69;;;23.34;90.59
57644;BME280;43474;46.510;6.686;2023-09-19T10:15:38;96648.59;;;23.34;90.54
57644;BME280;43474;46.510;6.686;2023-09-19T10:18:06;96654.78;;;23.34;90.37
57644;BME280;43474;46.510;6.686;2023-09-19T10:20:37;96655.91;;;23.33;90.26
57644;BME280;43474;46.510;6.686;2023-09-19T10:23:09;96653.66;;;23.35;90.17
57644;BME280;43474;46.510;6.686;2023-09-19T10:25:43;96655.25;;;23.36;90.04
57644;BME280;43474;46.510;6.686;2023-09-19T10:28:10;96647.16;;;23.36;89.97
57644;BME280;43474;46.510;6.686;2023-09-19T10:30:50;96649.06;;;23.36;90.03
57644;BME280;43474;46.510;6.686;2023-09-19T10:33:18;96655.25;;;23.36;90.06
57644;BME280;43474;46.510;6.686;2023-09-19T10:35:48;96651.47;;;23.37;90.10
57644;BME280;43474;46.510;6.686;2023-09-19T10:38:17;96643.34;;;23.37;90.08
57644;BME280;43474;46.510;6.686;2023-09-19T10:40:44;96645.22;;;23.37;90.25
57644;BME280;43474;46.510;6.686;2023-09-19T10:43:16;96650.63;;;23.37;90.28
57644;BME280;43474;46.510;6.686;2023-09-19T10:45:45;96646.84;;;23.38;90.50
57644;BME280;43474;46.510;6.686;2023-09-19T10:48:18;96650.34;;;23.38;90.42
57644;BME280;43474;46.510;6.686;2023-09-19T10:50:52;96653.06;;;23.38;90.78
57644;BME280;43474;46.510;6.686;2023-09-19T10:53:20;96643.81;;;23.39;90.87
57644;BME280;43474;46.510;6.686;2023-09-19T10:55:56;96649.22;;;23.39;90.96
57644;BME280;43474;46.510;6.686;2023-09-19T10:58:29;96643.03;;;23.39;90.79
57644;BME280;43474;46.510;6.686;2023-09-19T11:01:00;96650.34;;;23.38;91.48
57644;BME280;43474;46.510;6.686;2023-09-19T11:03:32;96654.78;;;23.34;89.61
57644;BME280;43474;46.510;6.686;2023-09-19T11:06:02;96646.16;;;23.24;86.96
57644;BME280;43474;46.510;6.686;2023-09-19T11:30:40;96642.84;;;23.35;89.08
57644;BME280;43474;46.510;6.686;2023-09-19T11:33:22;96633.63;;;23.36;89.07
57644;BME280;43474;46.510;6.686;2023-09-19T11:43:53;96630.91;;;23.36;88.64
57644;BME280;43474;46.510;6.686;2023-09-19T11:46:21;96621.72;;;23.37;88.84
57644;BME280;43474;46.510;6.686;2023-09-19T11:48:51;96627.13;;;23.37;88.90
57644;BME280;43474;46.510;6.686;2023-09-19T11:51:18;96619.81;;;23.38;88.99
57644;BME280;43474;46.510;6.686;2023-09-19T11:53:49;96620.59;;;23.38;89.07
57644;BME280;43474;46.510;6.686;2023-09-19T11:56:19;96611.69;;;23.38;89.10
57644;BME280;43474;46.510;6.686;2023-09-19T11:58:46;96617.09;;;23.38;89.31
57644;BME280;43474;46.510;6.686;2023-09-19T12:01:22;96612.16;;;23.40;89.36
57644;BME280;43474;46.510;6.686;2023-09-19T12:03:53;96615.19;;;23.38;89.45
57644;BME280;43474;46.510;6.686;2023-09-19T12:06:19;96615.66;;;23.40;89.45
57644;BME280;43474;46.510;6.686;2023-09-19T12:08:47;96619.47;;;23.39;89.62
57644;BME280;43474;46.510;6.686;2023-09-19T12:11:15;96612.94;;;23.40;89.63
57644;BME280;43474;46.510;6.686;2023-09-19T12:13:45;96610.25;;;23.40;89.98
57644;BME280;43474;46.510;6.686;2023-09-19T12:16:20;96603.25;;;23.39;89.99
57644;BME280;43474;46.510;6.686;2023-09-19T12:18:48;96602.94;;;23.41;89.97
57644;BME280;43474;46.510;6.686;2023-09-19T12:21:22;96602.94;;;23.41;90.30
57644;BME280;43474;46.510;6.686;2023-09-19T12:23:59;96598.31;;;23.41;90.34
57644;BME280;43474;46.510;6.686;2023-09-19T12:26:27;96594.81;;;23.41;90.44
57644;BME280;43474;46.510;6.686;2023-09-19T12:28:54;96593.69;;;23.42;90.38
57644;BME280;43474;46.510;6.686;2023-09-19T12:31:21;96594.53;;;23.42;90.37
57644;BME280;43474;46.510;6.686;2023-09-19T12:33:53;96591.81;;;23.42;90.76
57644;BME280;43474;46.510;6.686;2023-09-19T12:36:23;96589.13;;;23.42;90.92
57644;BME280;43474;46.510;6.686;2023-09-19T12:38:54;96589.91;;;23.43;90.97
57644;BME280;43474;46.510;6.686;2023-09-19T12:41:20;96581.78;;;23.43;91.13
57644;BME280;43474;46.510;6.686;2023-09-19T12:43:47;96586.09;;;23.44;91.23
57644;BME280;43474;46.510;6.686;2023-09-19T12:46:13;96594.19;;;23.44;91.35
57644;BME280;43474;46.510;6.686;2023-09-19T12:48:40;96590.38;;;23.45;91.57
57644;BME280;43474;46.510;6.686;2023-09-19T12:51:13;96596.91;;;23.44;91.45
57644;BME280;43474;46.510;6.686;2023-09-19T12:53:40;96580.66;;;23.44;91.45
57644;BME280;43474;46.510;6.686;2023-09-19T12:56:11;96580.66;;;23.44;91.36
57644;BME280;43474;46.510;6.686;2023-09-19T12:58:56;96576.06;;;23.44;91.62
57644;BME280;43474;46.510;6.686;2023-09-19T13:01:25;96570.66;;;23.44;91.71
57644;BME280;43474;46.510;6.686;2023-09-19T13:04:14;96570.66;;;23.44;91.68
57644;BME280;43474;46.510;6.686;2023-09-19T13:06:44;96574.16;;;23.45;91.77
57644;BME280;43474;46.510;6.686;2023-09-19T13:09:11;96575.44;;;23.47;91.80
57644;BME280;43474;46.510;6.686;2023-09-19T13:11:38;96578.16;;;23.47;92.13
57644;BME280;43474;46.510;6.686;2023-09-19T13:14:15;96567.63;;;23.46;91.87
57644;BME280;43474;46.510;6.686;2023-09-19T13:17:01;96573.53;;;23.48;92.10
57644;BME280;43474;46.510;6.686;2023-09-19T13:19:51;96558.38;;;23.47;91.90
57644;BME280;43474;46.510;6.686;2023-09-19T13:22:43;96557.28;;;23.48;92.21
57644;BME280;43474;46.510;6.686;2023-09-19T13:25:19;96551.38;;;23.46;92.42
57644;BME280;43474;46.510;6.686;2023-09-19T13:27:53;96553.78;;;23.47;92.35
57644;BME280;43474;46.510;6.686;2023-09-19T13:30:25;96552.19;;;23.46;92.26
57644;BME280;43474;46.510;6.686;2023-09-19T13:32:52;96552.69;;;23.48;92.25
57644;BME280;43474;46.510;6.686;2023-09-19T13:35:18;96547.56;;;23.47;92.14
57644;BME280;43474;46.510;6.686;2023-09-19T13:37:46;96542.97;;;23.47;92.51
57644;BME280;43474;46.510;6.686;2023-09-19T13:40:15;96541.84;;;23.48;92.39
57644;BME280;43474;46.510;6.686;2023-09-19T13:42:41;96540.28;;;23.47;92.30
57644;BME280;43474;46.510;6.686;2023-09-19T13:45:07;96531.84;;;23.49;92.63
57644;BME280;43474;46.510;6.686;2023-09-19T13:47:38;96532.94;;;23.48;92.38
57644;BME280;43474;46.510;6.686;2023-09-19T13:50:04;96544.56;;;23.48;92.49
57644;BME280;43474;46.510;6.686;2023-09-19T13:52:30;96534.53;;;23.49;92.64
57644;BME280;43474;46.510;6.686;2023-09-19T13:54:57;96523.72;;;23.49;92.73
57644;BME280;43474;46.510;6.686;2023-09-19T13:57:23;96518.31;;;23.49;92.83